Overview Statistics Trail Chart Weather Telemetry Raw packets
 

This is the latest recevied weather packets stored in our database for station/object WJ9H. If no packets are shown the sender has not sent any weather packets the latest 10 day(s).

<< 1 2 3 4 5 >>
Time Temp. Humidity Pressure Rain* Wind** Luminosity Snow
1788573102 23.89° C - 1014.3 hPa 0 mm - - -
1788573020 24.44° C - 1013.9 hPa 0 mm - - -
1788572340 24.44° C - 1013.9 hPa 0 mm - - -
1788571901 25° C - 1013.9 hPa 0 mm - - -
1788571767 25° C - 1013.9 hPa 0 mm - - -
1788571741 25° C - 1014.3 hPa 0 mm - - -
1788571140 25° C - 1013.9 hPa 0 mm - - -
1788571130 25.56° C - 1013.9 hPa 0 mm - - -
1788570701 25.56° C - 1013.9 hPa 0 mm - - -
1788570541 25.56° C - 1013.9 hPa 0 mm - - -
1788570520 26.11° C - 1013.9 hPa 0 mm - - -
1788570036 26.11° C - 1013.6 hPa 0 mm - - -
1788569940 26.11° C - 1013.9 hPa 0 mm - - -
1788569584 26.67° C - 1013.2 hPa 0 mm - - -
1788569502 26.11° C - 1013.6 hPa 0 mm - - -
1788569340 26.11° C - 1013.6 hPa 0 mm - - -
1788568739 26.67° C - 1013.2 hPa 0 mm - - -
1788568723 26.67° C - 1013.2 hPa 0 mm - - -
1788568301 26.67° C - 1013.2 hPa 0 mm - - -
1788568141 26.67° C - 1013.2 hPa 0 mm - - -
1788568124 26.67° C - 1013.2 hPa 0 mm - - -
1788567541 26.67° C - 1013.2 hPa 0 mm - - -
1788567102 27.22° C - 1012.6 hPa 0 mm - - -
1788566939 27.22° C - 1012.6 hPa 0 mm - - -
1788566865 27.22° C - 1012.9 hPa 0 mm - - -

* Rain latest hour (hover to see other rain measurements)
** Current wind speed in m/s (hover to see current wind gust speed)